Time;durP1;ratioP1;P1;durP2;ratioP2;P2;SDS_P1;SDS_P2;PMS_P1;PMS_P2;Temp;Humidity;BMP_temperature;BMP_pressure;BME280_temperature;BME280_humidity;BME280_pressure;Samples;Min_cycle;Max_cycle;Signal;HPM_P1;HPM_P2
2021/03/19 00:01:28;;;;;;;;;;;;;;;11.25;34.03;100695.41;5046587;28;19921;-86
2021/03/19 00:04:13;;;;;;;;;;;;;;;11.22;34.25;100697.97;5038956;28;19917;-87
2021/03/19 00:06:57;;;;;;;;;;;;;;;11.13;34.58;100704.19;5045746;28;19921;-87
2021/03/19 00:09:42;;;;;;;;;;;;;;;11.12;35.54;100710.75;5045655;28;19916;-87
2021/03/19 00:12:26;;;;;;;;;;;;;;;10.96;35.05;100700.66;5044153;28;19925;-85
2021/03/19 00:15:11;;;;;;;;;;;;;;;11.20;34.92;100705.63;5044224;28;20320;-87
2021/03/19 00:17:57;;;;;;;;;;;;;;;11.55;34.84;100699.06;5040452;28;20296;-88
2021/03/19 00:20:43;;;;;;;;;;;;;;;11.69;34.50;100699.69;5042520;28;19925;-86
2021/03/19 00:23:27;;;;;;;;;;;;;;;11.85;34.23;100692.66;5050996;28;19929;-87
2021/03/19 00:26:12;;;;;;;;;;;;;;;11.99;33.99;100693.25;5045227;28;19917;-88
2021/03/19 00:28:57;;;;;;;;;;;;;;;12.04;33.73;100702.41;5047132;28;19917;-86
2021/03/19 00:31:44;;;;;;;;;;;;;;;12.02;33.53;100691.00;5049463;28;19917;-86
2021/03/19 00:34:28;;;;;;;;;;;;;;;12.03;33.56;100698.88;5068345;28;19925;-88
2021/03/19 00:37:13;;;;;;;;;;;;;;;12.00;33.68;100694.84;5046166;28;19917;-86
2021/03/19 00:39:58;;;;;;;;;;;;;;;12.06;33.56;100694.69;5049304;28;19917;-87
2021/03/19 00:42:43;;;;;;;;;;;;;;;12.00;34.92;100697.56;5047983;28;19921;-88
2021/03/19 00:45:28;;;;;;;;;;;;;;;11.87;35.04;100695.84;5046059;28;19917;-89
2021/03/19 00:48:13;;;;;;;;;;;;;;;11.85;33.91;100700.00;5043741;28;19920;-87
2021/03/19 00:50:58;;;;;;;;;;;;;;;11.63;33.31;100700.19;5043564;28;19917;-88
2021/03/19 00:53:42;;;;;;;;;;;;;;;11.13;33.52;100704.19;5043836;28;20312;-88
2021/03/19 00:56:26;;;;;;;;;;;;;;;11.14;34.84;100703.06;5042579;28;19917;-87
2021/03/19 00:59:12;;;;;;;;;;;;;;;11.42;37.21;100700.06;5047591;28;19917;-87
2021/03/19 01:01:56;;;;;;;;;;;;;;;11.48;36.79;100702.28;5040754;28;20383;-87
2021/03/19 01:04:42;;;;;;;;;;;;;;;11.55;37.76;100699.88;5039108;28;19920;-87
2021/03/19 01:07:26;;;;;;;;;;;;;;;11.33;35.36;100701.94;5041739;28;20405;-87
2021/03/19 01:10:12;;;;;;;;;;;;;;;11.45;37.56;100705.66;5046171;28;19917;-86
2021/03/19 01:12:57;;;;;;;;;;;;;;;11.52;37.87;100703.25;5036641;28;19918;-87
2021/03/19 01:15:42;;;;;;;;;;;;;;;11.65;38.90;100696.00;5044966;28;19921;-88
2021/03/19 01:18:28;;;;;;;;;;;;;;;11.71;38.13;100692.00;5045523;28;20408;-88
2021/03/19 01:21:14;;;;;;;;;;;;;;;11.57;38.21;100692.19;5044306;28;19929;-87
2021/03/19 01:23:58;;;;;;;;;;;;;;;11.69;36.60;100696.16;5044438;28;19917;-88
2021/03/19 01:26:43;;;;;;;;;;;;;;;11.73;36.43;100697.16;5045402;28;19917;-87
2021/03/19 01:29:29;;;;;;;;;;;;;;;11.67;37.53;100701.94;5042690;28;19917;-87
2021/03/19 01:32:14;;;;;;;;;;;;;;;11.50;34.97;100697.31;5044938;28;20340;-88
2021/03/19 01:34:58;;;;;;;;;;;;;;;11.62;37.82;100693.16;5044967;28;19917;-86
2021/03/19 01:37:43;;;;;;;;;;;;;;;11.76;37.91;100705.50;5043590;28;19917;-90
2021/03/19 01:40:30;;;;;;;;;;;;;;;11.77;37.14;100701.66;5049352;28;19917;-89
2021/03/19 01:43:35;;;;;;;;;;;;;;;11.81;38.45;100699.88;5046481;28;19929;-88
2021/03/19 01:46:38;;;;;;;;;;;;;;;11.96;38.47;100693.91;5046001;28;19917;-87
2021/03/19 01:49:42;;;;;;;;;;;;;;;12.02;40.17;100691.00;5050167;28;19917;-86
2021/03/19 01:52:46;;;;;;;;;;;;;;;11.92;37.86;100682.06;5041766;28;20289;-87
2021/03/19 01:55:49;;;;;;;;;;;;;;;11.89;38.26;100682.69;5047291;28;19917;-87
2021/03/19 01:58:52;;;;;;;;;;;;;;;11.68;37.51;100689.94;5045956;28;19916;-88
2021/03/19 02:01:55;;;;;;;;;;;;;;;11.80;38.93;100689.28;5050988;28;19929;-87
2021/03/19 02:05:01;;;;;;;;;;;;;;;11.84;39.77;100688.31;5040606;28;20315;-86
2021/03/19 02:08:05;;;;;;;;;;;;;;;11.69;38.37;100685.25;5045403;28;19916;-87
2021/03/19 02:11:09;;;;;;;;;;;;;;;11.74;39.15;100685.13;5041099;28;19916;-86
2021/03/19 02:14:12;;;;;;;;;;;;;;;11.77;39.97;100685.31;5050134;28;19918;-87
2021/03/19 02:17:15;;;;;;;;;;;;;;;11.91;39.95;100685.91;5046047;28;19917;-86
2021/03/19 02:20:19;;;;;;;;;;;;;;;11.91;39.95;100685.91;5050971;28;20300;-86
2021/03/19 02:23:22;;;;;;;;;;;;;;;11.93;39.54;100682.88;5067350;28;19921;-86
2021/03/19 02:26:25;;;;;;;;;;;;;;;11.98;40.38;100683.50;5044721;28;20292;-87
2021/03/19 02:29:29;;;;;;;;;;;;;;;11.81;39.41;100693.63;5047222;28;19921;-88
2021/03/19 02:32:24;;;;;;;;;;;;;;;11.70;37.75;100686.88;5044651;28;19917;-88
2021/03/19 02:35:14;;;;;;;;;;;;;;;11.78;40.90;100692.34;5049099;28;19921;-88
2021/03/19 02:38:00;;;;;;;;;;;;;;;11.80;39.29;100683.84;5044858;28;19926;-87
2021/03/19 02:40:44;;;;;;;;;;;;;;;11.76;38.37;100686.41;5043699;28;19921;-88
2021/03/19 02:43:29;;;;;;;;;;;;;;;11.86;40.48;100685.28;5046945;28;19917;-87
2021/03/19 02:46:14;;;;;;;;;;;;;;;11.70;38.28;100684.94;5036163;28;20377;-87
2021/03/19 02:48:58;;;;;;;;;;;;;;;11.66;38.61;100683.19;5034933;28;19917;-87
2021/03/19 02:51:43;;;;;;;;;;;;;;;11.63;39.31;100690.06;5041834;28;20293;-88
2021/03/19 02:54:28;;;;;;;;;;;;;;;11.81;38.99;100682.72;5041747;28;19917;-88
2021/03/19 02:57:12;;;;;;;;;;;;;;;11.65;38.79;100687.84;5025827;28;19917;-88
2021/03/19 02:59:56;;;;;;;;;;;;;;;11.52;39.28;100700.53;5044765;28;19917;-88
2021/03/19 03:02:42;;;;;;;;;;;;;;;11.47;39.44;100689.00;5044429;28;19921;-88
2021/03/19 03:05:28;;;;;;;;;;;;;;;11.51;39.73;100685.31;5039741;28;19917;-87
2021/03/19 03:08:14;;;;;;;;;;;;;;;11.52;39.89;100686.13;5045186;28;20312;-89
2021/03/19 03:11:00;;;;;;;;;;;;;;;11.67;39.83;100685.63;5045531;28;19921;-88
2021/03/19 03:13:45;;;;;;;;;;;;;;;11.60;40.61;100688.00;5040964;28;19918;-88
2021/03/19 03:16:29;;;;;;;;;;;;;;;11.44;39.68;100681.44;5023794;28;19917;-88
2021/03/19 03:19:20;;;;;;;;;;;;;;;11.61;39.60;100684.16;5024816;28;19918;-88
2021/03/19 03:22:05;;;;;;;;;;;;;;;11.48;40.44;100674.22;5041368;28;20333;-88
2021/03/19 03:24:50;;;;;;;;;;;;;;;11.56;41.02;100678.88;5043533;28;19916;-89
2021/03/19 03:27:35;;;;;;;;;;;;;;;11.71;41.25;100674.84;5039275;28;19917;-88
2021/03/19 03:30:23;;;;;;;;;;;;;;;11.74;39.94;100680.47;5045661;28;19917;-90
2021/03/19 03:33:09;;;;;;;;;;;;;;;11.70;39.11;100668.59;5041574;28;20377;-90
2021/03/19 03:35:54;;;;;;;;;;;;;;;11.55;37.76;100672.63;5040704;28;19975;-89
2021/03/19 03:38:38;;;;;;;;;;;;;;;11.55;38.10;100669.13;5021240;28;19917;-88
2021/03/19 03:41:24;;;;;;;;;;;;;;;11.44;38.44;100670.56;5041190;28;19940;-88
2021/03/19 03:44:13;;;;;;;;;;;;;;;11.51;38.16;100660.00;5031105;28;19917;-86
2021/03/19 03:46:58;;;;;;;;;;;;;;;11.60;38.77;100658.06;5019086;28;19917;-86
2021/03/19 03:49:43;;;;;;;;;;;;;;;11.55;37.40;100660.94;5022682;28;19917;-85
2021/03/19 03:52:27;;;;;;;;;;;;;;;11.69;38.55;100649.84;5023322;28;20378;-87
2021/03/19 03:55:12;;;;;;;;;;;;;;;11.70;37.88;100655.00;5025644;28;19921;-82
2021/03/19 03:57:56;;;;;;;;;;;;;;;11.63;37.50;100660.13;5024406;28;19933;-82
2021/03/19 04:00:41;;;;;;;;;;;;;;;11.58;36.54;100655.63;5038336;28;20378;-83
2021/03/19 04:03:26;;;;;;;;;;;;;;;11.46;36.75;100657.44;5027559;28;19921;-82
2021/03/19 04:06:12;;;;;;;;;;;;;;;11.51;37.39;100658.06;5047700;28;19917;-81
2021/03/19 04:08:56;;;;;;;;;;;;;;;11.35;36.57;100659.69;5048006;28;19917;-82
2021/03/19 04:11:41;;;;;;;;;;;;;;;11.39;37.29;100655.19;5042268;28;19918;-82
2021/03/19 04:14:26;;;;;;;;;;;;;;;11.32;37.83;100663.06;5046789;28;19917;-82
2021/03/19 04:17:22;;;;;;;;;;;;;;;11.41;38.87;100663.06;5042405;28;19917;-80
2021/03/19 04:20:08;;;;;;;;;;;;;;;11.47;38.01;100664.50;5041341;28;19917;-82
2021/03/19 04:22:53;;;;;;;;;;;;;;;11.46;38.36;100666.41;5036817;28;20413;-82
2021/03/19 04:25:38;;;;;;;;;;;;;;;11.38;37.79;100660.94;5036930;28;19917;-79
2021/03/19 04:28:27;;;;;;;;;;;;;;;11.34;37.78;100666.25;5039808;28;20308;-81
2021/03/19 04:31:11;;;;;;;;;;;;;;;11.51;39.49;100668.16;5037484;28;19917;-83
2021/03/19 04:33:55;;;;;;;;;;;;;;;11.28;36.22;100664.81;5041518;28;19917;-83
2021/03/19 04:36:47;;;;;;;;;;;;;;;11.19;35.88;100665.94;5025658;28;20389;-81
2021/03/19 04:39:36;;;;;;;;;;;;;;;11.12;35.63;100664.47;5018599;28;19921;-82
2021/03/19 04:42:20;;;;;;;;;;;;;;;11.06;36.13;100664.97;5034588;28;20393;-81
2021/03/19 04:45:07;;;;;;;;;;;;;;;10.98;35.71;100669.28;5044586;28;19939;-79
2021/03/19 04:47:53;;;;;;;;;;;;;;;10.96;35.64;100666.09;5035584;28;19921;-82
2021/03/19 04:50:38;;;;;;;;;;;;;;;11.00;35.49;100660.81;5040785;28;19917;-81
2021/03/19 04:53:23;;;;;;;;;;;;;;;10.93;36.00;100655.84;5038314;28;19917;-81
2021/03/19 04:56:08;;;;;;;;;;;;;;;10.97;36.12;100651.34;5035472;28;20420;-80
2021/03/19 04:58:52;;;;;;;;;;;;;;;10.98;36.57;100652.16;5039395;28;20297;-79
2021/03/19 05:01:49;;;;;;;;;;;;;;;11.09;37.35;100654.25;5040120;28;19921;-80
2021/03/19 05:04:34;;;;;;;;;;;;;;;11.08;36.36;100660.81;5024152;28;19917;-80
2021/03/19 05:07:19;;;;;;;;;;;;;;;11.03;36.22;100655.53;5017280;28;20470;-81
2021/03/19 05:10:04;;;;;;;;;;;;;;;10.97;35.96;100656.78;5025488;28;19925;-80
2021/03/19 05:12:49;;;;;;;;;;;;;;;10.86;35.65;100660.97;5036560;28;19921;-79
2021/03/19 05:15:35;;;;;;;;;;;;;;;10.84;35.64;100660.47;5042136;28;19917;-80
2021/03/19 05:18:20;;;;;;;;;;;;;;;10.87;35.93;100662.53;5040753;28;19917;-81
2021/03/19 05:21:05;;;;;;;;;;;;;;;10.96;36.79;100655.22;5038322;28;19917;-79
2021/03/19 05:23:50;;;;;;;;;;;;;;;11.12;38.83;100661.00;5034800;28;19921;-79
2021/03/19 05:26:35;;;;;;;;;;;;;;;11.27;40.32;100651.53;5040851;28;20389;-80
2021/03/19 05:29:20;;;;;;;;;;;;;;;11.18;38.23;100659.69;5038203;28;19917;-81
2021/03/19 05:32:05;;;;;;;;;;;;;;;11.28;39.18;100659.34;5042318;28;19917;-80
2021/03/19 05:34:50;;;;;;;;;;;;;;;11.20;38.13;100665.63;5023654;28;19918;-78
2021/03/19 05:37:35;;;;;;;;;;;;;;;11.04;36.62;100670.72;5018137;28;19917;-80
2021/03/19 05:40:34;;;;;;;;;;;;;;;10.86;37.57;100669.13;5024745;28;19917;-81
2021/03/19 05:43:23;;;;;;;;;;;;;;;10.64;37.97;100674.66;5024579;28;19921;-80
2021/03/19 05:46:10;;;;;;;;;;;;;;;8.57;38.12;100667.06;5017348;28;19917;-87
2021/03/19 05:48:55;;;;;;;;;;;;;;;7.42;40.76;100663.44;5024368;28;19917;-82
2021/03/19 05:51:42;;;;;;;;;;;;;;;7.20;41.40;100665.97;5025229;28;19918;-82
2021/03/19 05:54:29;;;;;;;;;;;;;;;6.70;43.07;100665.63;5036710;28;19917;-80
2021/03/19 05:57:22;;;;;;;;;;;;;;;5.82;45.32;100666.03;5026782;28;19918;-79
2021/03/19 06:00:14;;;;;;;;;;;;;;;6.51;43.91;100674.75;5089742;22;19924;-82
2021/03/19 06:02:59;;;;;;;;;;;;;;;6.87;43.23;100665.91;5067232;28;19920;-84
2021/03/19 06:05:55;;;;;;;;;;;;;;;6.60;43.85;100673.06;5062849;28;19916;-84
2021/03/19 06:08:41;;;;;;;;;;;;;;;6.53;44.45;100673.41;5078921;28;19925;-84
2021/03/19 06:11:26;;;;;;;;;;;;;;;6.88;44.01;100658.59;5056789;28;20388;-82
2021/03/19 06:14:15;;;;;;;;;;;;;;;8.31;40.58;100658.66;5058057;28;19917;-82
2021/03/19 06:17:09;;;;;;;;;;;;;;;9.63;37.31;100661.09;5059752;28;19917;-82
2021/03/19 06:20:14;;;;;;;;;;;;;;;10.70;35.75;100668.78;5042548;28;19917;-85
2021/03/19 06:23:04;;;;;;;;;;;;;;;12.90;31.56;100669.25;5058160;28;19921;-83
2021/03/19 06:26:03;;;;;;;;;;;;;;;14.08;29.88;100667.69;5060913;28;19916;-84
2021/03/19 06:28:49;;;;;;;;;;;;;;;14.67;29.31;100678.22;5058459;28;19920;-82
2021/03/19 06:31:34;;;;;;;;;;;;;;;14.85;28.03;100676.84;5053085;28;19924;-82
2021/03/19 06:34:24;;;;;;;;;;;;;;;15.26;28.31;100682.00;5056850;28;19924;-81
2021/03/19 06:37:10;;;;;;;;;;;;;;;16.23;25.97;100678.78;5074905;28;19916;-84
2021/03/19 06:39:57;;;;;;;;;;;;;;;17.07;24.35;100683.91;5077863;28;19917;-84
2021/03/19 06:42:42;;;;;;;;;;;;;;;17.50;24.39;100683.66;5076988;28;20384;-83
2021/03/19 06:45:26;;;;;;;;;;;;;;;17.85;24.04;100680.81;5074511;28;19916;-83
2021/03/19 06:48:28;;;;;;;;;;;;;;;18.72;23.16;100690.97;5079105;28;19916;-82
2021/03/19 06:51:22;;;;;;;;;;;;;;;18.80;22.45;100687.13;5075270;28;19917;-82
2021/03/19 06:54:07;;;;;;;;;;;;;;;17.72;23.96;100687.66;5079342;28;19916;-84
2021/03/19 06:57:03;;;;;;;;;;;;;;;17.42;24.28;100692.13;5077700;28;19920;-83
2021/03/19 06:59:48;;;;;;;;;;;;;;;15.25;27.74;100690.53;5065989;28;19940;-82
2021/03/19 07:02:52;;;;;;;;;;;;;;;13.40;31.28;100686.38;5053983;28;19921;-82
2021/03/19 07:06:10;;;;;;;;;;;;;;;13.64;30.71;100682.94;5055873;28;19916;-82
2021/03/19 07:08:55;;;;;;;;;;;;;;;12.17;33.82;100683.09;5038425;28;20484;-82
2021/03/19 07:11:52;;;;;;;;;;;;;;;12.42;32.24;100675.94;5061262;28;20392;-81
2021/03/19 07:14:41;;;;;;;;;;;;;;;11.29;34.16;100679.22;5053896;28;20180;-84
2021/03/19 07:17:29;;;;;;;;;;;;;;;11.97;33.25;100678.34;5057190;28;19916;-82
2021/03/19 07:20:32;;;;;;;;;;;;;;;11.92;33.66;100676.59;5055555;28;19916;-84
2021/03/19 07:23:18;;;;;;;;;;;;;;;12.05;32.96;100679.44;5058715;28;19921;-84
2021/03/19 07:26:06;;;;;;;;;;;;;;;12.32;32.44;100688.00;5057194;28;20384;-84
2021/03/19 07:29:09;;;;;;;;;;;;;;;11.95;32.70;100694.22;5039416;28;19917;-82
2021/03/19 07:32:14;;;;;;;;;;;;;;;12.07;31.90;100690.81;5077831;28;19916;-83
2021/03/19 07:35:17;;;;;;;;;;;;;;;11.15;33.66;100696.53;5075080;28;20365;-84
2021/03/19 07:38:25;;;;;;;;;;;;;;;11.25;34.04;100694.59;5078247;28;19920;-82
2021/03/19 07:41:28;;;;;;;;;;;;;;;10.03;36.61;100689.91;5075395;28;20388;-82
2021/03/19 07:44:32;;;;;;;;;;;;;;;9.89;37.29;100691.94;5079907;28;19921;-81
2021/03/19 07:47:26;;;;;;;;;;;;;;;11.19;35.07;100696.69;5075848;28;19917;-82
2021/03/19 07:50:29;;;;;;;;;;;;;;;10.89;35.91;100703.84;5072316;28;20308;-83
2021/03/19 07:53:32;;;;;;;;;;;;;;;9.64;39.66;100695.28;5043475;28;19917;-82
2021/03/19 07:56:16;;;;;;;;;;;;;;;9.72;39.87;100702.66;5055157;28;19917;-83
2021/03/19 07:59:30;;;;;;;;;;;;;;;10.01;38.35;100699.47;5058504;28;19916;-82
2021/03/19 08:02:37;;;;;;;;;;;;;;;10.54;36.44;100704.88;5021473;28;19920;-84
2021/03/19 08:05:24;;;;;;;;;;;;;;;10.25;37.98;100711.66;5057547;28;20289;-83
2021/03/19 08:08:17;;;;;;;;;;;;;;;9.96;37.56;100705.03;5055371;28;20364;-81
2021/03/19 08:11:20;;;;;;;;;;;;;;;10.69;37.36;100707.97;5054499;28;20384;-82
2021/03/19 08:14:24;;;;;;;;;;;;;;;9.73;37.80;100707.81;5056702;28;19917;-82
2021/03/19 08:17:19;;;;;;;;;;;;;;;9.67;38.83;100703.59;5053454;28;20315;-83
2021/03/19 08:20:13;;;;;;;;;;;;;;;10.19;37.32;100707.47;5041639;28;19917;-81
2021/03/19 08:23:20;;;;;;;;;;;;;;;10.05;36.75;100708.63;5054682;28;19920;-82
2021/03/19 08:26:13;;;;;;;;;;;;;;;9.65;38.57;100705.03;5058072;28;19916;-80
2021/03/19 08:29:05;;;;;;;;;;;;;;;9.77;38.22;100710.69;5056325;28;19916;-81
2021/03/19 08:31:54;;;;;;;;;;;;;;;9.87;39.25;100705.81;5054552;28;19920;-81
2021/03/19 08:34:43;;;;;;;;;;;;;;;10.21;37.53;100701.69;5060002;28;19917;-79
2021/03/19 08:37:30;;;;;;;;;;;;;;;10.54;37.37;100715.75;5055662;28;19921;-81
2021/03/19 08:40:31;;;;;;;;;;;;;;;10.42;36.67;100710.91;5057523;28;20381;-81
2021/03/19 08:43:19;;;;;;;;;;;;;;;10.65;35.45;100712.44;5056102;28;19921;-80
2021/03/19 08:46:04;;;;;;;;;;;;;;;11.09;35.07;100711.41;5055227;28;19917;-80
2021/03/19 08:48:50;;;;;;;;;;;;;;;11.54;34.42;100719.25;5059354;28;20380;-80
2021/03/19 08:51:37;;;;;;;;;;;;;;;11.59;34.11;100716.38;5056585;28;19917;-80
2021/03/19 08:54:24;;;;;;;;;;;;;;;11.50;34.23;100710.13;5038979;28;19920;-79
2021/03/19 08:57:09;;;;;;;;;;;;;;;11.27;35.51;100716.88;5057123;28;20381;-79
2021/03/19 08:59:53;;;;;;;;;;;;;;;11.31;36.35;100728.72;5064003;28;19931;-78
2021/03/19 09:02:38;;;;;;;;;;;;;;;11.11;36.83;100711.88;5055691;28;20301;-80
2021/03/19 09:05:27;;;;;;;;;;;;;;;11.52;36.33;100719.59;5043913;28;19921;-78
2021/03/19 09:08:12;;;;;;;;;;;;;;;12.86;37.19;100719.00;5056104;28;19920;-86
2021/03/19 09:11:02;;;;;;;;;;;;;;;13.17;34.43;100724.16;5039010;28;19916;-82
2021/03/19 09:13:59;;;;;;;;;;;;;;;13.47;33.62;100719.41;5057147;28;19916;-79
2021/03/19 09:16:47;;;;;;;;;;;;;;;13.60;32.85;100715.63;5054844;28;19916;-82
2021/03/19 09:19:32;;;;;;;;;;;;;;;13.54;32.73;100727.88;5052491;28;19917;-80
2021/03/19 09:22:19;;;;;;;;;;;;;;;13.88;33.36;100721.28;5056702;28;19921;-82
2021/03/19 09:28:01;;;;;;;;;;;;;;;14.04;32.88;100713.25;5051296;28;20388;-83
2021/03/19 09:30:49;;;;;;;;;;;;;;;14.07;32.57;100718.81;5067223;28;19924;-82
2021/03/19 09:33:42;;;;;;;;;;;;;;;13.92;32.38;100719.47;5059513;28;19930;-80
2021/03/19 09:36:46;;;;;;;;;;;;;;;13.97;32.19;100715.72;5058223;28;19921;-82
2021/03/19 09:39:43;;;;;;;;;;;;;;;14.16;32.55;100724.22;5053827;28;19917;-83
2021/03/19 09:42:28;;;;;;;;;;;;;;;13.62;32.46;100716.06;5051603;28;19920;-78
2021/03/19 09:45:13;;;;;;;;;;;;;;;13.72;31.58;100714.84;5061964;28;19921;-78
2021/03/19 09:48:15;;;;;;;;;;;;;;;13.58;32.03;100715.16;5053992;28;19917;-80
2021/03/19 09:51:03;;;;;;;;;;;;;;;13.31;30.63;100709.44;5049356;28;19921;-79
2021/03/19 09:53:47;;;;;;;;;;;;;;;13.31;31.16;100710.22;5054036;28;19917;-83
2021/03/19 09:56:39;;;;;;;;;;;;;;;13.21;31.24;100710.63;5055555;28;19921;-79
2021/03/19 09:59:25;;;;;;;;;;;;;;;13.24;31.46;100715.44;5061079;28;19980;-80
2021/03/19 10:02:28;;;;;;;;;;;;;;;12.96;31.22;100711.56;5058793;28;19921;-77
2021/03/19 10:05:15;;;;;;;;;;;;;;;13.23;31.42;100702.91;5056352;28;19917;-80
2021/03/19 10:08:01;;;;;;;;;;;;;;;13.30;31.32;100705.13;5060037;28;20320;-79
2021/03/19 10:10:45;;;;;;;;;;;;;;;13.26;30.69;100707.69;5057127;28;19920;-79
2021/03/19 10:13:30;;;;;;;;;;;;;;;12.83;30.80;100706.03;5055776;28;19917;-79
2021/03/19 10:16:24;;;;;;;;;;;;;;;13.13;31.18;100714.22;5059869;28;20396;-79
2021/03/19 10:19:10;;;;;;;;;;;;;;;13.06;29.77;100713.91;5070861;28;19916;-80
2021/03/19 10:21:54;;;;;;;;;;;;;;;12.94;30.61;100703.72;5055702;28;19917;-81
2021/03/19 10:24:39;;;;;;;;;;;;;;;13.17;30.48;100709.69;5059643;28;19921;-81
2021/03/19 10:27:23;;;;;;;;;;;;;;;13.11;28.38;100710.97;5057701;28;19917;-81
2021/03/19 10:30:13;;;;;;;;;;;;;;;12.77;29.20;100707.34;5056223;28;19917;-80
2021/03/19 10:33:03;;;;;;;;;;;;;;;12.48;29.43;100696.44;5059128;28;19917;-80
2021/03/19 10:35:59;;;;;;;;;;;;;;;12.56;28.76;100702.97;5061352;28;19916;-81
2021/03/19 10:38:48;;;;;;;;;;;;;;;12.55;29.58;100691.25;5054368;28;20384;-80
2021/03/19 10:41:37;;;;;;;;;;;;;;;12.82;29.72;100698.97;5054307;28;20304;-79
2021/03/19 10:44:27;;;;;;;;;;;;;;;12.58;29.96;100696.06;5055994;28;19921;-82
2021/03/19 10:47:17;;;;;;;;;;;;;;;12.57;30.23;100689.00;5054316;28;19935;-78
2021/03/19 10:50:08;;;;;;;;;;;;;;;12.63;29.86;100692.34;5057909;28;19917;-79
2021/03/19 10:53:04;;;;;;;;;;;;;;;12.58;30.05;100696.06;5055760;28;19917;-80
2021/03/19 10:55:50;;;;;;;;;;;;;;;12.53;29.49;100692.72;5058368;28;19916;-81
2021/03/19 10:58:40;;;;;;;;;;;;;;;12.41;29.51;100694.22;5057163;28;19917;-80
2021/03/19 11:01:43;;;;;;;;;;;;;;;12.42;29.35;100700.47;5053061;28;19917;-81
2021/03/19 11:04:32;;;;;;;;;;;;;;;12.44;29.36;100699.00;5057416;28;20376;-80
2021/03/19 11:07:27;;;;;;;;;;;;;;;12.39;30.59;100692.97;5056052;28;19924;-80
2021/03/19 11:10:47;;;;;;;;;;;;;;;12.25;29.95;100692.34;5057322;28;19917;-82
2021/03/19 11:13:36;;;;;;;;;;;;;;;12.18;31.72;100694.81;5038952;28;20389;-81
2021/03/19 11:16:29;;;;;;;;;;;;;;;11.93;34.00;100696.50;5054103;28;19916;-80
2021/03/19 11:19:16;;;;;;;;;;;;;;;11.56;35.06;100696.03;5057744;28;19920;-81
2021/03/19 11:22:06;;;;;;;;;;;;;;;11.47;36.24;100702.63;5055480;28;19916;-81
2021/03/19 11:25:08;;;;;;;;;;;;;;;11.37;36.08;100701.00;5057400;28;19920;-80
2021/03/19 11:27:53;;;;;;;;;;;;;;;11.17;36.33;100685.31;5040316;28;19917;-80
2021/03/19 11:30:38;;;;;;;;;;;;;;;11.09;35.85;100700.50;5053727;28;19917;-78
2021/03/19 11:33:22;;;;;;;;;;;;;;;10.94;36.32;100698.25;5059778;28;19916;-81
2021/03/19 11:36:08;;;;;;;;;;;;;;;10.77;36.63;100695.47;5055755;28;19917;-81
2021/03/19 11:38:54;;;;;;;;;;;;;;;10.73;37.09;100697.25;5059453;28;20292;-81
2021/03/19 11:41:42;;;;;;;;;;;;;;;10.64;37.76;100699.16;5057710;28;19917;-79
2021/03/19 11:44:27;;;;;;;;;;;;;;;10.52;38.51;100709.81;5054153;28;19921;-80
2021/03/19 11:47:16;;;;;;;;;;;;;;;10.31;39.16;100698.69;5052614;28;19917;-80
2021/03/19 11:50:27;;;;;;;;;;;;;;;10.18;39.66;100694.97;5045791;28;19917;-83
2021/03/19 11:53:18;;;;;;;;;;;;;;;10.21;39.32;100690.81;5055405;28;19916;-80
2021/03/19 11:56:02;;;;;;;;;;;;;;;10.32;39.94;100689.44;5053593;28;19921;-81
2021/03/19 11:58:48;;;;;;;;;;;;;;;10.32;38.49;100688.63;5036759;28;19917;-81
2021/03/19 12:01:32;;;;;;;;;;;;;;;10.39;38.09;100681.63;5063632;22;19925;-83
2021/03/19 12:04:18;;;;;;;;;;;;;;;10.17;38.40;100679.78;5053230;28;19928;-83
2021/03/19 12:07:03;;;;;;;;;;;;;;;10.29;37.11;100682.72;5061994;28;19921;-84
2021/03/19 12:09:48;;;;;;;;;;;;;;;10.24;36.28;100680.16;5068139;28;19916;-84
2021/03/19 12:12:32;;;;;;;;;;;;;;;10.33;36.39;100673.94;5064313;28;20312;-84
2021/03/19 12:15:17;;;;;;;;;;;;;;;10.50;35.17;100674.81;5061483;28;19921;-83
2021/03/19 12:18:02;;;;;;;;;;;;;;;10.42;35.27;100670.13;5066021;28;19917;-83
2021/03/19 12:20:48;;;;;;;;;;;;;;;10.67;36.06;100665.88;5066836;28;19917;-83
2021/03/19 12:23:32;;;;;;;;;;;;;;;10.78;34.39;100669.91;5050316;28;19921;-83
2021/03/19 12:26:18;;;;;;;;;;;;;;;11.04;33.37;100656.31;5069421;28;20308;-84
2021/03/19 12:29:03;;;;;;;;;;;;;;;11.12;32.49;100653.59;5065003;28;19917;-82
2021/03/19 12:31:48;;;;;;;;;;;;;;;11.18;31.91;100639.81;5066523;28;19917;-83
2021/03/19 12:34:32;;;;;;;;;;;;;;;11.28;32.88;100637.59;5065266;28;19918;-83
2021/03/19 12:37:18;;;;;;;;;;;;;;;11.43;29.92;100633.56;5064837;28;19917;-84
2021/03/19 12:40:04;;;;;;;;;;;;;;;11.50;29.59;100634.69;5060481;28;20440;-83
2021/03/19 12:42:49;;;;;;;;;;;;;;;11.71;29.06;100625.81;5062055;28;19921;-83
2021/03/19 12:45:34;;;;;;;;;;;;;;;11.78;29.52;100626.97;5062450;28;19917;-84
2021/03/19 12:48:19;;;;;;;;;;;;;;;11.88;28.86;100626.63;5060472;28;19917;-83
2021/03/19 12:51:04;;;;;;;;;;;;;;;12.14;28.25;100621.03;5059199;28;19917;-84
2021/03/19 12:53:49;;;;;;;;;;;;;;;12.22;28.00;100617.50;5062039;28;19917;-83
2021/03/19 12:56:33;;;;;;;;;;;;;;;12.40;28.63;100616.25;5060370;28;19917;-83
2021/03/19 12:59:18;;;;;;;;;;;;;;;12.56;29.43;100619.22;5066619;28;19916;-83
2021/03/19 13:02:04;;;;;;;;;;;;;;;12.80;27.22;100618.56;5065108;28;19916;-83
2021/03/19 13:04:48;;;;;;;;;;;;;;;12.96;25.94;100626.94;5062934;28;20336;-82
2021/03/19 13:07:33;;;;;;;;;;;;;;;13.04;26.56;100620.66;5061210;28;20399;-83
2021/03/19 13:10:19;;;;;;;;;;;;;;;13.15;26.22;100619.94;5065707;28;19917;-83
2021/03/19 13:13:04;;;;;;;;;;;;;;;13.24;26.22;100620.66;5060987;28;20304;-83
2021/03/19 13:15:49;;;;;;;;;;;;;;;13.31;26.98;100617.38;5065583;28;19916;-83
2021/03/19 13:18:33;;;;;;;;;;;;;;;13.16;26.80;100613.31;5065242;28;19917;-82
2021/03/19 13:21:18;;;;;;;;;;;;;;;13.29;26.54;100614.19;5062807;28;19916;-83
2021/03/19 13:24:03;;;;;;;;;;;;;;;13.34;26.04;100613.19;5065979;28;19921;-83
2021/03/19 13:26:48;;;;;;;;;;;;;;;13.30;26.34;100615.00;5065430;28;19916;-83
2021/03/19 13:29:33;;;;;;;;;;;;;;;13.28;26.37;100615.31;5067793;28;19916;-84
2021/03/19 13:32:17;;;;;;;;;;;;;;;13.32;25.35;100615.44;5067573;28;19916;-84
2021/03/19 13:35:04;;;;;;;;;;;;;;;13.33;25.92;100609.66;5070138;28;19916;-83
2021/03/19 13:37:48;;;;;;;;;;;;;;;13.49;26.62;100607.88;5068064;28;19929;-84
2021/03/19 13:40:33;;;;;;;;;;;;;;;13.26;27.05;100606.66;5068542;28;19917;-83
2021/03/19 13:43:20;;;;;;;;;;;;;;;13.26;26.59;100609.38;5071649;28;19921;-84
2021/03/19 13:46:05;;;;;;;;;;;;;;;13.45;26.65;100612.44;5070222;28;19921;-83
2021/03/19 13:48:50;;;;;;;;;;;;;;;13.48;26.87;100608.22;5070911;28;19943;-82
2021/03/19 13:51:34;;;;;;;;;;;;;;;13.40;26.59;100607.19;5068176;28;19917;-84
2021/03/19 13:54:19;;;;;;;;;;;;;;;13.53;26.08;100603.34;5065312;28;20320;-84
2021/03/19 13:57:08;;;;;;;;;;;;;;;13.41;26.79;100600.56;5063448;28;19917;-83
2021/03/19 13:59:53;;;;;;;;;;;;;;;13.17;27.17;100600.47;5066960;28;20388;-84
2021/03/19 14:02:38;;;;;;;;;;;;;;;13.40;27.02;100609.91;5061638;28;20304;-83
2021/03/19 14:05:24;;;;;;;;;;;;;;;13.55;26.90;100605.75;5061784;28;19920;-83
2021/03/19 14:08:11;;;;;;;;;;;;;;;13.76;26.79;100602.94;5066163;28;19925;-83
2021/03/19 14:10:56;;;;;;;;;;;;;;;13.98;27.46;100605.22;5046396;28;19925;-82
2021/03/19 14:13:42;;;;;;;;;;;;;;;13.50;28.52;100604.03;5044952;28;19921;-83
2021/03/19 14:16:26;;;;;;;;;;;;;;;13.57;28.72;100604.25;5051434;28;19916;-83
2021/03/19 14:19:13;;;;;;;;;;;;;;;13.70;28.20;100592.22;5052843;28;19921;-84
2021/03/19 14:21:57;;;;;;;;;;;;;;;13.58;28.04;100588.66;5064749;28;19921;-82
2021/03/19 14:24:42;;;;;;;;;;;;;;;13.61;27.96;100593.47;5068942;28;19920;-85
2021/03/19 14:27:27;;;;;;;;;;;;;;;13.63;27.30;100591.97;5063085;28;19920;-84
2021/03/19 14:30:12;;;;;;;;;;;;;;;13.84;27.23;100594.63;5055511;28;19921;-83
2021/03/19 14:32:57;;;;;;;;;;;;;;;13.81;27.72;100597.25;5062221;28;19916;-84